地図

経路データ

SID SEASON NUMBER BASIN SUBBASIN NAME ISO_TIME NATURE LAT LON WMO_WIND WMO_PRES WMO_AGENCY TRACK_TYPE DIST2LAND LANDFALL IFLAG USA_AGENCY USA_ATCF_ID USA_LAT USA_LON USA_RECORD USA_STATUS USA_WIND USA_PRES USA_SSHS USA_R34_NE USA_R34_SE USA_R34_SW USA_R34_NW USA_R50_NE USA_R50_SE USA_R50_SW USA_R50_NW USA_R64_NE USA_R64_SE USA_R64_SW USA_R64_NW USA_POCI USA_ROCI USA_RMW USA_EYE TOKYO_LAT TOKYO_LON TOKYO_GRADE TOKYO_WIND TOKYO_PRES TOKYO_R50_DIR TOKYO_R50_LONG TOKYO_R50_SHORT TOKYO_R30_DIR TOKYO_R30_LONG TOKYO_R30_SHORT TOKYO_LAND CMA_LAT CMA_LON CMA_CAT CMA_WIND CMA_PRES HKO_LAT HKO_LON HKO_CAT HKO_WIND HKO_PRES NEWDELHI_LAT NEWDELHI_LON NEWDELHI_GRADE NEWDELHI_WIND NEWDELHI_PRES NEWDELHI_CI NEWDELHI_DP NEWDELHI_POCI REUNION_LAT REUNION_LON REUNION_TYPE REUNION_WIND REUNION_PRES REUNION_TNUM REUNION_CI REUNION_RMW REUNION_R34_NE REUNION_R34_SE REUNION_R34_SW REUNION_R34_NW REUNION_R50_NE REUNION_R50_SE REUNION_R50_SW REUNION_R50_NW REUNION_R64_NE REUNION_R64_SE REUNION_R64_SW REUNION_R64_NW BOM_LAT BOM_LON BOM_TYPE BOM_WIND BOM_PRES BOM_TNUM BOM_CI BOM_RMW BOM_R34_NE BOM_R34_SE BOM_R34_SW BOM_R34_NW BOM_R50_NE BOM_R50_SE BOM_R50_SW BOM_R50_NW BOM_R64_NE BOM_R64_SE BOM_R64_SW BOM_R64_NW BOM_ROCI BOM_POCI BOM_EYE BOM_POS_METHOD BOM_PRES_METHOD NADI_LAT NADI_LON NADI_CAT NADI_WIND NADI_PRES WELLINGTON_LAT WELLINGTON_LON WELLINGTON_WIND WELLINGTON_PRES DS824_LAT DS824_LON DS824_STAGE DS824_WIND DS824_PRES TD9636_LAT TD9636_LON TD9636_STAGE TD9636_WIND TD9636_PRES TD9635_LAT TD9635_LON TD9635_WIND TD9635_PRES TD9635_ROCI NEUMANN_LAT NEUMANN_LON NEUMANN_CLASS NEUMANN_WIND NEUMANN_PRES MLC_LAT MLC_LON MLC_CLASS MLC_WIND MLC_PRES USA_GUST BOM_GUST BOM_GUST_PER REUNION_GUST REUNION_GUST_PER USA_SEAHGT USA_SEARAD_NE USA_SEARAD_SE USA_SEARAD_SW USA_SEARAD_NW STORM_SPEED STORM_DIR
1931228N14301 1931 28 NA NA NOT_NAMED 1931-08-16 06:00:00 TS 14.2000 -59.3000 25 hurdat_atl main 433 428 O_____________ hurdat_atl AL041931 14.2000 -59.3000 TD 25 -1 14 303
1931228N14301 1931 28 NA CS NOT_NAMED 1931-08-16 09:00:00 TS 14.5904 -59.9096 main 452 450 P_____________ AL041931 14.5904 -59.9096 TD 25 -1 14 305
1931228N14301 1931 28 NA CS NOT_NAMED 1931-08-16 12:00:00 TS 15.0000 -60.5000 25 hurdat_atl main 484 483 O_____________ hurdat_atl AL041931 15.0000 -60.5000 TD 25 -1 14 308
1931228N14301 1931 28 NA CS NOT_NAMED 1931-08-16 15:00:00 TS 15.4423 -61.0577 main 526 497 P_____________ AL041931 15.4423 -61.0577 TD 27 -1 14 310
1931228N14301 1931 28 NA CS NOT_NAMED 1931-08-16 18:00:00 TS 15.9000 -61.6000 30 hurdat_atl main 497 428 O_____________ hurdat_atl AL041931 15.9000 -61.6000 TD 30 -1 14 311
1931228N14301 1931 28 NA CS NOT_NAMED 1931-08-16 21:00:00 TS 16.3499 -62.1503 main 419 345 P_____________ AL041931 16.3499 -62.1503 TD 30 -1 14 310
1931228N14301 1931 28 NA CS NOT_NAMED 1931-08-17 00:00:00 TS 16.8000 -62.7000 30 hurdat_atl main 345 277 O_____________ hurdat_atl AL041931 16.8000 -62.7000 TD 30 -1 14 311
1931228N14301 1931 28 NA CS NOT_NAMED 1931-08-17 03:00:00 TS 17.2573 -63.2428 main 273 198 P_____________ AL041931 17.2573 -63.2428 TD 32 -1 14 311
1931228N14301 1931 28 NA CS NOT_NAMED 1931-08-17 06:00:00 TS 17.7000 -63.8000 35 hurdat_atl main 198 127 O_____________ hurdat_atl AL041931 17.7000 -63.8000 TS 35 0 14 308
1931228N14301 1931 28 NA CS NOT_NAMED 1931-08-17 09:00:00 TS 18.1074 -64.3928 main 127 64 P_____________ AL041931 18.1074 -64.3928 TS 35 0 14 305
1931228N14301 1931 28 NA CS NOT_NAMED 1931-08-17 12:00:00 TS 18.5000 -65.0000 35 hurdat_atl main 64 39 O_____________ hurdat_atl AL041931 18.5000 -65.0000 TS 35 0 14 305
1931228N14301 1931 28 NA NA NOT_NAMED 1931-08-17 15:00:00 TS 18.8999 -65.6077 main 55 55 P_____________ AL041931 18.8999 -65.6077 TS 35 0 14 305
1931228N14301 1931 28 NA NA NOT_NAMED 1931-08-17 18:00:00 TS 19.3000 -66.2000 35 hurdat_atl main 100 100 O_____________ hurdat_atl AL041931 19.3000 -66.2000 TS 35 0 14 307
1931228N14301 1931 28 NA NA NOT_NAMED 1931-08-17 21:00:00 TS 19.7073 -66.7577 main 145 145 P_____________ AL041931 19.7073 -66.7577 TS 35 0 13 308
1931228N14301 1931 28 NA NA NOT_NAMED 1931-08-18 00:00:00 TS 20.1000 -67.3000 35 hurdat_atl main 190 190 O_____________ hurdat_atl AL041931 20.1000 -67.3000 TS 35 0 13 306
1931228N14301 1931 28 NA NA NOT_NAMED 1931-08-18 03:00:00 TS 20.4573 -67.8503 main 198 185 P_____________ AL041931 20.4573 -67.8503 TS 32 -1 12 304
1931228N14301 1931 28 NA NA NOT_NAMED 1931-08-18 06:00:00 TS 20.8000 -68.4000 30 hurdat_atl main 192 187 O_____________ hurdat_atl AL041931 20.8000 -68.4000 TD 30 -1 13 304
1931228N14301 1931 28 NA NA NOT_NAMED 1931-08-18 09:00:00 TS 21.1575 -68.9651 main 207 202 P_____________ AL041931 21.1575 -68.9651 TD 30 -1 12 304
1931228N14301 1931 28 NA NA NOT_NAMED 1931-08-18 12:00:00 TS 21.5000 -69.5000 30 hurdat_atl main 218 216 O_____________ hurdat_atl AL041931 21.5000 -69.5000 TD 30 -1 12 305
1931228N14301 1931 28 NA NA NOT_NAMED 1931-08-18 15:00:00 TS 21.8149 -69.9876 main 232 232 P_____________ AL041931 21.8149 -69.9876 TD 30 -1 10 306
1931228N14301 1931 28 NA NA NOT_NAMED 1931-08-18 18:00:00 TS 22.1000 -70.4000 30 hurdat_atl main 258 257 O_____________ hurdat_atl AL041931 22.1000 -70.4000 TD 30 -1 9 308
1931228N14301 1931 28 NA NA NOT_NAMED 1931-08-18 21:00:00 TS 22.3574 -70.7377 main 272 258 P_____________ AL041931 22.3574 -70.7377 TD 30 -1 7 312
1931228N14301 1931 28 NA NA NOT_NAMED 1931-08-19 00:00:00 TS 22.6000 -71.0000 30 hurdat_atl main 258 257 O_____________ hurdat_atl AL041931 22.6000 -71.0000 TD 30 -1 7 317
1931228N14301 1931 28 NA NA NOT_NAMED 1931-08-19 03:00:00 TS 22.8575 -71.2375 main 265 258 P_____________ AL041931 22.8575 -71.2375 TD 30 -1 6 324
1931228N14301 1931 28 NA NA NOT_NAMED 1931-08-19 06:00:00 TS 23.1000 -71.4000 30 hurdat_atl main 268 268 O_____________ hurdat_atl AL041931 23.1000 -71.4000 TD 30 -1 5 334
1931228N14301 1931 28 NA NA NOT_NAMED 1931-08-19 09:00:00 TS 23.3075 -71.4801 main 280 280 P_____________ AL041931 23.3075 -71.4801 TD 30 -1 4 348
1931228N14301 1931 28 NA NA NOT_NAMED 1931-08-19 12:00:00 TS 23.5000 -71.5000 30 hurdat_atl main 299 299 O_____________ hurdat_atl AL041931 23.5000 -71.5000 TD 30 -1 4 356
1931228N14301 1931 28 NA NA NOT_NAMED 1931-08-19 15:00:00 TS 23.7000 -71.5150 main 319 319 P_____________ AL041931 23.7000 -71.5150 TD 30 -1 4 0
1931228N14301 1931 28 NA NA NOT_NAMED 1931-08-19 18:00:00 TS 23.9000 -71.5000 30 hurdat_atl main 338 338 O_____________ hurdat_atl AL041931 23.9000 -71.5000 TD 30 -1 4 5
1931228N14301 1931 28 NA NA NOT_NAMED 1931-08-19 21:00:00 TS 24.1000 -71.4650 main 358 358 P_____________ AL041931 24.1000 -71.4650 TD 30 -1 4 12
1931228N14301 1931 28 NA NA NOT_NAMED 1931-08-20 00:00:00 TS 24.3000 -71.4000 30 hurdat_atl main 383 383 O_____________ hurdat_atl AL041931 24.3000 -71.4000 TD 30 -1 4 18
1931228N14301 1931 28 NA NA NOT_NAMED 1931-08-20 03:00:00 TS 24.5075 -71.3225 main 407 407 P_____________ AL041931 24.5075 -71.3225 TD 30 -1 4 24
1931228N14301 1931 28 NA NA NOT_NAMED 1931-08-20 06:00:00 TS 24.7000 -71.2000 30 hurdat_atl main 432 432 O_____________ hurdat_atl AL041931 24.7000 -71.2000 TD 30 -1 4 39
1931228N14301 1931 28 NA NA NOT_NAMED 1931-08-20 09:00:00 TS 24.8425 -71.0224 main 451 451 P_____________ AL041931 24.8425 -71.0224 TD 27 -1 5 50
1931228N14301 1931 28 NA NA NOT_NAMED 1931-08-20 12:00:00 TS 25.0000 -70.8000 25 hurdat_atl main 480 480 O_____________ hurdat_atl AL041931 25.0000 -70.8000 TD 25 -1 6 49
1931228N14301 1931 28 NA NA NOT_NAMED 1931-08-20 15:00:00 TS 25.2125 -70.5574 main 509 509 P_____________ AL041931 25.2125 -70.5574 TD 25 -1 7 42
1931228N14301 1931 28 NA NA NOT_NAMED 1931-08-20 18:00:00 TS 25.5000 -70.3000 25 hurdat_atl main 553 553 O_____________ hurdat_atl AL041931 25.5000 -70.3000 TD 25 -1 8 35
1931228N14301 1931 28 NA NA NOT_NAMED 1931-08-20 21:00:00 TS 25.8625 -70.0499 main 607 607 P_____________ AL041931 25.8625 -70.0499 TD 25 -1 9 29
1931228N14301 1931 28 NA NA NOT_NAMED 1931-08-21 00:00:00 TS 26.3000 -69.8000 25 hurdat_atl main 656 656 O_____________ hurdat_atl AL041931 26.3000 -69.8000 TD 25 -1 10 26
1931228N14301 1931 28 NA NA NOT_NAMED 1931-08-21 03:00:00 TS 26.7876 -69.5505 main 714 714 P_____________ AL041931 26.7876 -69.5505 TD 25 -1 11 24
1931228N14301 1931 28 NA NA NOT_NAMED 1931-08-21 06:00:00 TS 27.3000 -69.3000 25 hurdat_atl main 777 O_____________ hurdat_atl AL041931 27.3000 -69.3000 TD 25 -1 11 24

IBTrACS Databaseについて

本データベースは、米国NOAAが公開する1842年以降の世界の熱帯低気圧のベストトラックデータアーカイブInternational Best Track Archive for Climate Stewardship (IBTrACS)を、ウェブで閲覧しやすい形式に変換したものです。

最終更新日:2021-11-26